Terminal Aerodrome Forecast
Issued by NWS Charleston, WV

Current Version | Previous Version | Text Only | Print | Product List | Glossary Off
Versions: 1 2 3 4 5 6 7 8 9 10 11 12 13 14 15 16 17 18 19 20 21 22 23

000
FTUS41 KRLX 260237 AAA
TAFBKW
TAF AMD
KBKW 260237Z 2603/2624 VRB03KT P6SM FEW080
     FM260500 00000KT P6SM FEW250
     FM261500 28007KT P6SM SCT150
     FM261800 28007KT P6SM SCT050=

USA.gov is the U.S. government's official web portal to all federal, state and local government web resources and services.